Time;durP1;ratioP1;P1;durP2;ratioP2;P2;SDS_P1;SDS_P2;PMS_P1;PMS_P2;Temp;Humidity;BMP_temperature;BMP_pressure;BME280_temperature;BME280_humidity;BME280_pressure;Samples;Min_cycle;Max_cycle;Signal;HPM_P1;HPM_P2
2023/03/18 00:00:39;;;;;;;30.50;19.53;;;;;;;2.24;78.55;95467.28;5017416;28;20269;-74
2023/03/18 00:03:06;;;;;;;37.30;20.23;;;;;;;2.20;78.42;95464.75;5016288;28;20211;-73
2023/03/18 00:05:33;;;;;;;33.43;19.50;;;;;;;2.17;77.64;95467.25;5015729;28;20282;-74
2023/03/18 00:08:01;;;;;;;33.28;19.67;;;;;;;2.11;78.75;95463.03;5016783;28;20218;-74
2023/03/18 00:10:28;;;;;;;36.95;20.67;;;;;;;2.07;78.74;95458.00;5016444;28;20728;-74
2023/03/18 00:12:55;;;;;;;41.90;19.90;;;;;;;2.09;78.06;95462.19;5017086;28;20211;-74
2023/03/18 00:15:22;;;;;;;31.05;17.88;;;;;;;2.06;78.28;95464.69;5016569;28;20270;-74
2023/03/18 00:17:48;;;;;;;33.60;19.40;;;;;;;2.10;77.96;95453.84;5017050;28;20342;-74
2023/03/18 00:20:17;;;;;;;34.13;18.13;;;;;;;2.10;78.72;95442.97;5016605;28;20306;-74
2023/03/18 00:22:45;;;;;;;33.63;18.90;;;;;;;2.04;78.82;95442.09;5016398;28;20773;-73
2023/03/18 00:25:14;;;;;;;32.80;17.90;;;;;;;1.97;78.78;95427.03;5015269;28;20897;-73
2023/03/18 00:27:41;;;;;;;29.45;15.57;;;;;;;2.03;78.83;95442.09;5017176;28;20697;-72
2023/03/18 00:30:11;;;;;;;32.72;17.42;;;;;;;2.04;78.18;95444.59;5015235;28;20212;-73
2023/03/18 00:32:38;;;;;;;27.50;17.35;;;;;;;2.05;78.84;95433.75;5015731;28;20211;-76
2023/03/18 00:35:05;;;;;;;33.20;17.10;;;;;;;2.07;78.91;95437.94;5015002;28;20219;-74
2023/03/18 00:37:34;;;;;;;27.92;17.00;;;;;;;2.04;78.50;95442.09;5015806;28;20702;-73
2023/03/18 00:40:05;;;;;;;26.83;15.95;;;;;;;2.05;78.62;95437.94;5015988;28;20297;-73
2023/03/18 00:42:37;;;;;;;31.30;17.27;;;;;;;2.06;79.05;95432.09;5016398;28;20199;-74
2023/03/18 00:45:05;;;;;;;32.53;16.52;;;;;;;2.01;78.71;95423.69;5015511;28;20618;-74
2023/03/18 00:47:32;;;;;;;29.67;17.02;;;;;;;1.96;78.87;95411.16;5015864;28;20780;-73
2023/03/18 00:49:59;;;;;;;30.23;17.23;;;;;;;2.00;78.82;95422.84;5015294;28;20685;-73
2023/03/18 00:52:26;;;;;;;33.20;17.40;;;;;;;1.96;78.61;95411.16;5016586;28;20274;-73
2023/03/18 00:54:53;;;;;;;29.08;17.35;;;;;;;1.91;78.80;95412.81;5016269;28;20234;-74
2023/03/18 00:57:19;;;;;;;32.53;17.27;;;;;;;1.89;79.68;95404.44;5016521;28;20289;-73
2023/03/18 00:59:47;;;;;;;27.23;16.47;;;;;;;1.88;78.96;95401.94;5016586;28;20231;-73
2023/03/18 01:02:14;;;;;;;29.33;15.90;;;;;;;1.86;79.23;95396.06;5017076;28;20263;-73
2023/03/18 01:04:41;;;;;;;28.27;16.15;;;;;;;1.82;79.40;95400.22;5016051;28;20748;-72
2023/03/18 01:07:09;;;;;;;24.63;15.75;;;;;;;1.81;79.13;95406.06;5016739;28;20261;-74
2023/03/18 01:09:38;;;;;;;25.20;15.87;;;;;;;1.86;79.24;95404.41;5015968;28;20207;-74
2023/03/18 01:12:05;;;;;;;25.00;16.60;;;;;;;1.86;79.80;95398.56;5015378;28;20199;-74
2023/03/18 01:14:32;;;;;;;28.43;16.20;;;;;;;1.81;79.60;95400.22;5016047;28;20682;-74
2023/03/18 01:17:01;;;;;;;25.40;14.60;;;;;;;1.79;79.76;95399.34;5014679;28;21339;-74
2023/03/18 01:19:28;;;;;;;22.90;15.32;;;;;;;1.76;79.81;95402.69;5015935;28;20615;-73
2023/03/18 01:21:55;;;;;;;25.97;15.27;;;;;;;1.77;79.99;95403.53;5015008;28;20882;-74
2023/03/18 01:24:22;;;;;;;28.35;16.20;;;;;;;1.76;79.24;95396.84;5015292;28;20211;-74
2023/03/18 01:26:49;;;;;;;24.70;15.37;;;;;;;1.77;79.66;95398.50;5013886;28;20228;-74
2023/03/18 01:29:16;;;;;;;28.93;14.43;;;;;;;1.76;79.76;95396.84;5016536;28;20200;-73
2023/03/18 01:31:44;;;;;;;31.57;15.60;;;;;;;1.75;79.75;95395.16;5014528;28;20220;-73
2023/03/18 01:34:12;;;;;;;29.10;15.40;;;;;;;1.74;79.43;95389.31;5015831;28;20235;-74
2023/03/18 01:36:40;;;;;;;22.13;14.27;;;;;;;1.72;79.61;95397.66;5014479;28;20207;-73
2023/03/18 01:39:06;;;;;;;31.23;15.93;;;;;;;1.69;80.19;95385.97;5013278;28;20204;-74
2023/03/18 01:41:35;;;;;;;24.80;15.67;;;;;;;1.64;79.44;95390.94;5013619;28;20715;-74
2023/03/18 01:44:03;;;;;;;26.47;15.70;;;;;;;1.63;80.20;95390.94;5013560;28;20327;-74
2023/03/18 01:46:36;;;;;;;27.13;15.97;;;;;;;1.64;80.30;95395.94;5013658;28;20214;-74
2023/03/18 01:49:09;;;;;;;27.27;15.73;;;;;;;1.64;80.52;95393.44;5014551;28;20220;-73
2023/03/18 01:51:38;;;;;;;24.80;14.80;;;;;;;1.60;79.97;95388.41;5014273;28;20627;-73
2023/03/18 01:54:07;;;;;;;23.80;14.70;;;;;;;1.56;80.37;95394.22;5013852;28;20286;-74
2023/03/18 01:56:36;;;;;;;24.93;15.63;;;;;;;1.59;80.05;95389.22;5014278;28;20286;-74
2023/03/18 01:59:05;;;;;;;25.47;14.30;;;;;;;1.55;80.29;95382.53;5014312;28;20592;-72
2023/03/18 02:01:38;;;;;;;27.23;15.20;;;;;;;1.52;81.24;95380.84;5014670;28;20718;-74
2023/03/18 02:04:07;;;;;;;25.97;16.97;;;;;;;1.51;81.00;95389.16;5014731;28;20207;-74
2023/03/18 02:06:34;;;;;;;30.47;17.57;;;;;;;1.52;80.59;95385.00;5014508;28;20208;-74
2023/03/18 02:09:02;;;;;;;31.47;16.30;;;;;;;1.46;81.06;95382.47;5014423;28;20274;-73
2023/03/18 02:11:33;;;;;;;31.83;17.83;;;;;;;1.44;81.09;95379.13;5013427;28;20235;-74
2023/03/18 02:14:00;;;;;;;28.90;16.63;;;;;;;1.45;81.85;95371.63;5014844;28;20234;-74
2023/03/18 02:16:31;;;;;;;28.83;16.97;;;;;;;1.46;81.84;95377.47;5013632;28;20756;-74
2023/03/18 02:19:01;;;;;;;28.63;16.47;;;;;;;1.51;82.07;95381.66;5015972;28;20295;-74
2023/03/18 02:21:37;;;;;;;26.02;16.70;;;;;;;1.53;81.05;95376.66;5017743;28;20643;-74
2023/03/18 02:24:15;;;;;;;28.23;16.40;;;;;;;1.46;82.22;95372.47;5016918;28;20226;-74
2023/03/18 02:26:50;;;;;;;29.27;17.33;;;;;;;1.45;82.59;95370.78;5016930;28;20289;-73
2023/03/18 02:29:20;;;;;;;28.17;15.70;;;;;;;1.48;82.44;95376.66;5016451;28;20550;-74
2023/03/18 02:31:47;;;;;;;30.30;15.83;;;;;;;1.47;81.82;95374.97;5016921;28;20231;-74
2023/03/18 02:34:16;;;;;;;32.38;16.05;;;;;;;1.43;82.06;95372.44;5016802;28;21556;-74
2023/03/18 02:36:43;;;;;;;27.17;14.87;;;;;;;1.40;82.90;95379.94;5015699;28;20746;-73
2023/03/18 02:39:13;;;;;;;29.10;16.50;;;;;;;1.35;82.94;95375.72;5017332;28;20208;-74
2023/03/18 02:41:39;;;;;;;23.67;14.43;;;;;;;1.40;82.63;95379.94;5017686;28;20195;-73
2023/03/18 02:44:06;;;;;;;25.37;15.63;;;;;;;1.24;83.38;95372.28;5016222;28;20701;-73
2023/03/18 02:46:43;;;;;;;27.30;16.08;;;;;;;1.16;83.98;95378.94;5016281;28;20278;-74
2023/03/18 02:49:10;;;;;;;25.70;16.60;;;;;;;1.11;84.36;95375.56;5015832;28;20214;-74
2023/03/18 02:51:38;;;;;;;22.70;14.07;;;;;;;1.11;83.62;95373.06;5016082;28;20291;-74
2023/03/18 02:54:09;;;;;;;24.17;15.07;;;;;;;1.15;84.20;95372.25;5015751;28;20211;-73
2023/03/18 02:56:36;;;;;;;23.30;14.60;;;;;;;1.05;83.87;95385.50;5016873;28;20210;-74
2023/03/18 02:59:02;;;;;;;25.67;14.73;;;;;;;1.06;83.82;95377.19;5017315;28;20298;-74
2023/03/18 03:01:31;;;;;;;28.87;16.43;;;;;;;1.04;83.59;95376.31;5016933;28;20533;-74
2023/03/18 03:03:59;;;;;;;34.70;16.93;;;;;;;1.05;83.94;95370.50;5017121;28;20302;-74
2023/03/18 03:06:26;;;;;;;31.87;16.80;;;;;;;1.07;83.70;95381.34;5017841;28;20660;-73
2023/03/18 03:08:53;;;;;;;31.63;15.93;;;;;;;1.07;83.30;95373.84;5015989;28;20280;-74
2023/03/18 03:11:20;;;;;;;29.10;17.83;;;;;;;1.00;84.02;95377.97;5016280;28;20266;-73
2023/03/18 03:13:47;;;;;;;27.30;17.60;;;;;;;0.99;83.23;95375.47;5016059;28;20295;-73
2023/03/18 03:16:15;;;;;;;25.43;15.43;;;;;;;0.98;83.83;95376.28;5016378;28;20334;-73
2023/03/18 03:18:42;;;;;;;25.95;17.55;;;;;;;0.96;83.31;95371.28;5015690;28;20196;-73
2023/03/18 03:21:11;;;;;;;33.27;17.57;;;;;;;0.81;84.07;95380.28;5016027;28;20214;-73
2023/03/18 03:23:38;;;;;;;32.23;18.00;;;;;;;0.81;83.46;95382.78;5015653;28;20204;-74
2023/03/18 03:26:05;;;;;;;30.02;16.38;;;;;;;0.88;83.61;95385.38;5015183;28;20271;-74
2023/03/18 03:28:33;;;;;;;29.17;17.17;;;;;;;0.85;83.58;95387.84;5017104;28;20291;-73
2023/03/18 03:31:00;;;;;;;30.73;16.45;;;;;;;0.79;84.34;95391.94;5015591;28;20204;-73
2023/03/18 03:33:27;;;;;;;34.63;19.70;;;;;;;0.76;84.48;95392.75;5015974;28;20759;-73
2023/03/18 03:35:54;;;;;;;35.05;17.17;;;;;;;0.75;84.41;95391.06;5016314;28;20688;-73
2023/03/18 03:38:23;;;;;;;30.33;19.03;;;;;;;0.73;84.54;95389.41;5016733;28;20785;-74
2023/03/18 03:40:51;;;;;;;27.43;17.60;;;;;;;0.68;84.09;95390.22;5016222;28;20215;-74
2023/03/18 03:43:18;;;;;;;29.87;18.23;;;;;;;0.65;84.05;95390.19;5017657;28;20287;-74
2023/03/18 03:45:44;;;;;;;28.10;17.67;;;;;;;0.67;84.36;95393.53;5015879;28;20713;-74
2023/03/18 03:48:12;;;;;;;29.67;17.77;;;;;;;0.68;84.38;95394.38;5016982;28;20604;-74
2023/03/18 03:50:40;;;;;;;35.10;18.23;;;;;;;0.70;83.68;95395.22;5016024;28;20211;-74
2023/03/18 03:53:06;;;;;;;30.25;16.13;;;;;;;0.69;83.74;95396.06;5016527;28;20385;-73
2023/03/18 03:55:34;;;;;;;25.83;15.50;;;;;;;0.76;83.81;95407.75;5015844;28;20259;-74
2023/03/18 03:58:01;;;;;;;24.40;14.23;;;;;;;0.79;83.21;95399.47;5016508;28;20212;-73
2023/03/18 04:00:28;;;;;;;25.47;14.97;;;;;;;0.72;83.23;95402.75;5015603;28;20298;-74
2023/03/18 04:02:55;;;;;;;23.40;14.17;;;;;;;0.62;83.83;95402.66;5017017;28;20211;-73
2023/03/18 04:05:23;;;;;;;25.47;13.30;;;;;;;0.65;84.17;95395.19;5015287;28;20253;-74
2023/03/18 04:07:51;;;;;;;18.43;12.47;;;;;;;0.62;83.84;95399.31;5016573;28;20203;-74
2023/03/18 04:10:20;;;;;;;22.48;14.18;;;;;;;0.59;84.25;95395.09;5016440;28;20748;-72
2023/03/18 04:12:49;;;;;;;25.40;13.97;;;;;;;0.56;83.92;95400.06;5017228;28;20663;-75
2023/03/18 04:15:18;;;;;;;20.27;13.83;;;;;;;0.57;84.30;95401.75;5016424;28;20318;-74
2023/03/18 04:17:45;;;;;;;24.47;13.93;;;;;;;0.50;84.07;95407.50;5016461;28;20277;-73
2023/03/18 04:20:13;;;;;;;24.47;15.07;;;;;;;0.52;83.96;95407.53;5016884;28;20299;-74
2023/03/18 04:22:40;;;;;;;21.50;14.50;;;;;;;0.50;84.59;95415.00;5014933;28;20627;-75
2023/03/18 04:25:09;;;;;;;25.40;15.47;;;;;;;0.51;84.30;95421.69;5015086;28;20212;-73
2023/03/18 04:27:37;;;;;;;20.57;13.77;;;;;;;0.49;84.85;95422.53;5014614;28;20250;-74
2023/03/18 04:30:06;;;;;;;21.37;14.87;;;;;;;0.66;83.35;95421.03;5015661;28;20437;-73
2023/03/18 04:32:33;;;;;;;27.83;14.53;;;;;;;0.66;83.99;95419.38;5014868;28;20357;-75
2023/03/18 04:35:00;;;;;;;24.40;15.30;;;;;;;0.69;83.71;95431.06;5015539;28;20231;-74
2023/03/18 04:37:27;;;;;;;23.40;13.70;;;;;;;0.71;83.33;95428.59;5016653;28;20250;-74
2023/03/18 04:39:54;;;;;;;23.48;14.43;;;;;;;0.78;83.61;95426.13;5015258;28;20867;-73
2023/03/18 04:42:21;;;;;;;27.13;14.90;;;;;;;0.87;83.09;95435.41;5014156;28;20214;-73
2023/03/18 04:44:47;;;;;;;28.23;14.90;;;;;;;0.94;82.66;95437.16;5015912;28;20385;-74
2023/03/18 04:47:15;;;;;;;24.40;14.67;;;;;;;0.97;82.74;95438.00;5015147;28;20227;-76
2023/03/18 04:49:42;;;;;;;22.42;14.65;;;;;;;1.03;82.96;95444.72;5015527;28;20665;-73
2023/03/18 04:52:10;;;;;;;27.90;16.35;;;;;;;1.03;82.64;95443.06;5015175;28;20207;-74
2023/03/18 04:54:37;;;;;;;27.30;14.40;;;;;;;1.12;83.07;95442.31;5015112;28;20207;-75
2023/03/18 04:57:05;;;;;;;26.87;15.23;;;;;;;1.22;81.93;95449.09;5015414;28;20621;-72
2023/03/18 04:59:32;;;;;;;22.63;15.15;;;;;;;1.24;82.02;95426.53;5016035;28;20306;-73
2023/03/18 05:01:59;;;;;;;23.87;14.80;;;;;;;1.46;81.47;95440.09;5015131;28;20265;-75
2023/03/18 05:04:27;;;;;;;26.70;14.18;;;;;;;1.71;81.52;95454.47;5015547;28;20357;-73
2023/03/18 05:06:54;;;;;;;27.08;15.30;;;;;;;2.60;81.49;95450.69;5014118;28;20204;-76
2023/03/18 05:09:21;;;;;;;23.50;14.77;;;;;;;4.32;77.42;95438.94;5014498;28;20235;-74
2023/03/18 05:11:47;;;;;;;21.50;15.15;;;;;;;6.16;71.50;95428.44;5014666;28;20239;-72
2023/03/18 05:14:14;;;;;;;24.38;14.50;;;;;;;7.47;66.00;95428.34;5014443;28;20294;-72
2023/03/18 05:16:41;;;;;;;25.65;16.30;;;;;;;8.22;62.79;95426.22;5015677;28;20235;-73
2023/03/18 05:19:08;;;;;;;26.50;16.08;;;;;;;8.84;59.99;95430.94;5015732;28;20598;-71
2023/03/18 05:21:36;;;;;;;36.88;19.90;;;;;;;9.50;54.00;95417.63;5015148;28;20302;-72
2023/03/18 05:24:03;;;;;;;32.00;18.65;;;;;;;10.16;52.72;95409.16;5015884;28;20767;-73
2023/03/18 05:26:30;;;;;;;32.67;21.48;;;;;;;11.46;49.36;95413.91;5015047;28;20218;-74
2023/03/18 05:28:57;;;;;;;33.00;18.85;;;;;;;13.05;45.58;95409.28;5016370;28;20298;-74
2023/03/18 05:31:24;;;;;;;26.88;18.30;;;;;;;14.42;42.00;95402.94;5016488;28;20208;-74
2023/03/18 05:33:51;;;;;;;29.10;20.60;;;;;;;15.52;38.80;95394.50;5015652;28;20203;-74
2023/03/18 05:36:18;;;;;;;37.20;21.25;;;;;;;15.70;37.31;95404.81;5016007;28;20223;-74
2023/03/18 05:38:46;;;;;;;30.50;21.17;;;;;;;15.67;37.33;95408.34;5016716;28;20211;-74
2023/03/18 05:41:12;;;;;;;25.98;19.42;;;;;;;16.18;36.25;95409.25;5016048;28;20337;-75
2023/03/18 05:43:39;;;;;;;30.15;19.25;;;;;;;16.99;34.28;95406.78;5015753;28;20303;-74
2023/03/18 05:46:06;;;;;;;31.50;19.80;;;;;;;17.87;33.01;95408.78;5015354;28;20207;-74
2023/03/18 05:48:33;;;;;;;35.22;22.73;;;;;;;18.75;30.92;95412.28;5015702;28;20208;-75
2023/03/18 05:50:59;;;;;;;41.35;25.85;;;;;;;19.60;29.45;95414.75;5016204;28;20212;-74
2023/03/18 05:53:26;;;;;;;47.75;28.27;;;;;;;19.56;28.71;95424.41;5017773;28;20277;-75
2023/03/18 05:55:55;;;;;;;42.83;26.25;;;;;;;18.82;29.43;95419.53;5017657;28;20235;-76
2023/03/18 05:58:22;;;;;;;37.85;25.17;;;;;;;18.71;29.26;95427.09;5017560;28;20696;-75
2023/03/18 06:00:50;;;;;;;42.17;24.35;;;;;;;18.44;29.76;95423.53;5018354;28;20227;-74
2023/03/18 06:03:17;;;;;;;31.60;22.17;;;;;;;18.17;30.47;95429.38;5018357;28;20658;-75
2023/03/18 06:05:44;;;;;;;31.42;20.10;;;;;;;18.87;29.65;95422.66;5017407;28;20298;-75
2023/03/18 06:08:11;;;;;;;33.25;18.65;;;;;;;19.21;28.76;95430.94;5017185;28;20804;-75
2023/03/18 06:10:39;;;;;;;27.35;17.08;;;;;;;19.29;28.69;95429.53;5018063;28;20235;-74
2023/03/18 06:13:08;;;;;;;28.75;19.00;;;;;;;18.45;29.30;95435.50;5018147;28;20612;-74
2023/03/18 06:15:34;;;;;;;31.08;19.23;;;;;;;16.72;31.71;95435.63;5017462;28;20231;-76
2023/03/18 06:18:01;;;;;;;33.78;22.13;;;;;;;15.16;34.18;95432.88;5018664;28;20338;-74
2023/03/18 06:20:28;;;;;;;37.95;25.63;;;;;;;14.27;36.47;95443.59;5019277;28;20208;-76
2023/03/18 06:22:55;;;;;;;38.60;23.55;;;;;;;13.66;37.81;95441.84;5017260;28;20208;-75
2023/03/18 06:25:22;;;;;;;34.90;21.73;;;;;;;12.75;39.03;95436.75;5019027;28;20204;-76
2023/03/18 06:27:51;;;;;;;35.60;22.00;;;;;;;12.11;40.52;95433.91;5018065;28;20223;-74
2023/03/18 06:30:19;;;;;;;36.15;21.38;;;;;;;12.16;41.09;95443.91;5019765;28;20354;-76
2023/03/18 06:32:46;;;;;;;32.72;21.02;;;;;;;12.59;40.32;95435.66;5018375;28;20333;-73
2023/03/18 06:35:14;;;;;;;32.00;20.58;;;;;;;12.95;39.81;95429.19;5019200;28;20296;-74
2023/03/18 06:37:41;;;;;;;39.67;22.50;;;;;;;13.06;39.84;95435.63;5018649;28;20262;-74
2023/03/18 06:40:11;;;;;;;29.92;20.85;;;;;;;13.62;39.11;95424.09;5018819;28;20207;-74
2023/03/18 06:42:38;;;;;;;32.90;18.88;;;;;;;14.82;37.63;95412.28;5019173;28;20211;-75
2023/03/18 06:45:06;;;;;;;32.30;20.50;;;;;;;16.17;34.88;95408.44;5018243;28;20691;-74
2023/03/18 06:47:34;;;;;;;35.85;21.00;;;;;;;17.55;32.80;95407.19;5018261;28;20208;-74
2023/03/18 06:50:01;;;;;;;34.53;20.05;;;;;;;19.16;30.32;95404.63;5019574;28;20365;-74
2023/03/18 06:52:28;;;;;;;36.17;20.40;;;;;;;20.99;27.83;95403.81;5018780;28;20590;-73
2023/03/18 06:54:55;;;;;;;28.27;20.50;;;;;;;22.66;25.93;95401.16;5018956;28;20326;-74
2023/03/18 06:57:22;;;;;;;30.73;20.55;;;;;;;24.24;23.54;95401.66;5018469;28;20322;-73
2023/03/18 06:59:49;;;;;;;26.83;18.40;;;;;;;25.07;22.59;95404.16;5019117;28;20258;-74
2023/03/18 07:02:16;;;;;;;27.17;18.73;;;;;;;24.57;22.98;95403.22;5018071;28;20601;-74
2023/03/18 07:04:44;;;;;;;27.00;19.85;;;;;;;23.70;24.23;95401.72;5018665;28;20219;-73
2023/03/18 07:07:11;;;;;;;29.77;20.65;;;;;;;23.17;24.43;95398.97;5019191;28;20672;-74
2023/03/18 07:09:38;;;;;;;28.83;21.73;;;;;;;23.39;24.14;95398.09;5019057;28;20286;-75
2023/03/18 07:12:06;;;;;;;27.90;20.60;;;;;;;23.27;24.04;95404.25;5019094;28;20349;-76
2023/03/18 07:14:32;;;;;;;27.73;20.38;;;;;;;23.04;23.94;95399.06;5017470;28;20204;-74
2023/03/18 07:16:59;;;;;;;25.80;20.48;;;;;;;23.11;24.01;95401.19;5018546;28;20274;-74
2023/03/18 07:19:26;;;;;;;26.75;20.77;;;;;;;23.22;23.82;95398.63;5018972;28;20237;-76
2023/03/18 07:21:54;;;;;;;29.85;24.13;;;;;;;23.10;24.16;95396.97;5018473;28;20303;-76
2023/03/18 07:24:21;;;;;;;42.22;25.77;;;;;;;22.90;24.74;95396.75;5018385;28;20373;-74
2023/03/18 07:26:49;;;;;;;36.50;24.98;;;;;;;23.78;24.10;95399.31;5017639;28;20224;-74
2023/03/18 07:29:16;;;;;;;30.65;24.08;;;;;;;25.29;22.66;95389.31;5018933;28;20286;-75
2023/03/18 07:31:43;;;;;;;30.67;23.25;;;;;;;25.99;21.61;95398.75;5018759;28;20217;-74
2023/03/18 07:34:10;;;;;;;26.17;21.48;;;;;;;26.52;21.30;95393.94;5018385;28;20274;-76
2023/03/18 07:36:37;;;;;;;22.33;19.98;;;;;;;27.46;20.25;95397.34;5018171;28;20335;-74
2023/03/18 07:39:05;;;;;;;25.50;19.40;;;;;;;27.50;20.12;95403.06;5018220;28;20208;-74
2023/03/18 07:41:32;;;;;;;25.45;19.17;;;;;;;27.99;19.40;95393.94;5018345;28;20214;-74
2023/03/18 07:43:59;;;;;;;25.27;21.48;;;;;;;28.57;19.77;95396.09;5018082;28;20320;-73
2023/03/18 07:46:26;;;;;;;29.77;23.60;;;;;;;29.02;19.16;95394.09;5018553;28;20305;-74
2023/03/18 07:48:53;;;;;;;22.92;18.52;;;;;;;29.32;18.60;95389.31;5017602;28;20235;-74
2023/03/18 07:51:20;;;;;;;23.50;21.02;;;;;;;29.84;18.36;95387.38;5017983;28;20223;-75
2023/03/18 07:53:49;;;;;;;22.00;18.17;;;;;;;29.94;17.49;95392.47;5017863;28;20257;-74
2023/03/18 07:56:17;;;;;;;22.10;18.92;;;;;;;29.22;18.28;95386.00;5017817;28;20231;-73
2023/03/18 07:58:44;;;;;;;19.13;17.23;;;;;;;30.32;17.59;95391.03;5017580;28;20683;-75
2023/03/18 08:01:14;;;;;;;19.65;17.65;;;;;;;31.27;17.15;95384.16;5017953;28;20294;-75
2023/03/18 08:03:42;;;;;;;19.23;17.17;;;;;;;32.34;16.19;95384.22;5017689;28;20235;-73
2023/03/18 08:06:10;;;;;;;18.88;16.63;;;;;;;32.01;16.30;95377.53;5018439;28;20262;-74
2023/03/18 08:08:36;;;;;;;17.42;15.75;;;;;;;32.50;15.91;95382.41;5017473;28;20227;-75
2023/03/18 08:11:03;;;;;;;18.77;16.83;;;;;;;33.64;15.42;95382.84;5016806;28;20243;-75
2023/03/18 08:13:31;;;;;;;16.90;15.27;;;;;;;34.02;14.79;95372.09;5017733;28;20207;-74
2023/03/18 08:15:58;;;;;;;17.35;15.75;;;;;;;33.96;14.84;95373.66;5017097;28;20322;-74
2023/03/18 08:18:25;;;;;;;19.17;17.17;;;;;;;34.37;15.17;95371.25;5017164;28;20214;-74
2023/03/18 08:20:53;;;;;;;31.48;25.85;;;;;;;35.29;14.73;95370.25;5017804;28;20210;-75
2023/03/18 08:23:20;;;;;;;18.33;16.63;;;;;;;35.95;13.68;95384.53;5016918;28;20582;-74
2023/03/18 08:25:48;;;;;;;25.38;22.55;;;;;;;35.41;14.09;95379.25;5017621;28;20207;-74
2023/03/18 08:28:15;;;;;;;21.70;19.50;;;;;;;35.17;13.70;95385.81;5017025;28;20204;-76
2023/03/18 08:30:45;;;;;;;20.58;18.45;;;;;;;34.57;14.64;95373.22;5017912;28;20211;-72
2023/03/18 08:33:12;;;;;;;18.85;15.57;;;;;;;34.76;14.84;95372.53;5017675;28;20209;-75
2023/03/18 08:35:41;;;;;;;16.77;15.15;;;;;;;34.01;14.85;95376.56;5017025;28;20357;-75
2023/03/18 08:38:08;;;;;;;36.13;27.92;;;;;;;33.37;15.01;95375.63;5016537;28;20338;-74
2023/03/18 08:40:34;;;;;;;31.73;27.33;;;;;;;33.58;15.43;95370.41;5017260;28;20686;-75
2023/03/18 08:43:01;;;;;;;22.02;19.67;;;;;;;34.00;15.17;95366.19;5017867;28;20265;-75
2023/03/18 08:45:28;;;;;;;14.60;13.10;;;;;;;33.91;13.98;95367.31;5017262;28;20264;-75
2023/03/18 08:47:56;;;;;;;17.08;15.32;;;;;;;32.21;15.43;95375.25;5016988;28;20204;-75
2023/03/18 08:50:27;;;;;;;16.10;14.43;;;;;;;30.52;16.64;95368.72;5017360;28;20211;-75
2023/03/18 08:52:56;;;;;;;16.10;14.40;;;;;;;28.62;17.50;95376.34;5017377;28;20222;-75
2023/03/18 08:55:24;;;;;;;17.63;14.30;;;;;;;28.04;18.13;95381.28;5017169;28;21373;-74
2023/03/18 08:57:51;;;;;;;15.55;13.57;;;;;;;27.01;19.07;95377.22;5016801;28;20242;-75
2023/03/18 09:00:20;;;;;;;17.73;14.32;;;;;;;26.75;19.75;95384.00;5016824;28;20203;-75
2023/03/18 09:02:47;;;;;;;17.38;14.98;;;;;;;26.82;19.74;95382.47;5016675;28;20242;-75
2023/03/18 09:05:15;;;;;;;17.50;15.32;;;;;;;26.48;20.15;95383.97;5016817;28;20687;-75
2023/03/18 09:07:42;;;;;;;20.63;16.55;;;;;;;25.15;21.08;95387.09;5017801;28;20214;-75
2023/03/18 09:10:11;;;;;;;13.75;12.25;;;;;;;24.70;21.57;95377.03;5015550;28;20322;-76
2023/03/18 09:12:38;;;;;;;15.48;13.65;;;;;;;24.77;22.10;95385.94;5016490;28;20719;-76
2023/03/18 09:15:06;;;;;;;15.38;12.43;;;;;;;23.92;22.42;95382.66;5015702;28;20315;-75
2023/03/18 09:17:33;;;;;;;15.80;12.95;;;;;;;21.91;24.07;95385.19;5016993;28;20220;-75
2023/03/18 09:20:00;;;;;;;13.23;11.55;;;;;;;19.97;25.86;95392.59;5017050;28;20196;-75
2023/03/18 09:22:28;;;;;;;11.85;9.57;;;;;;;17.37;28.66;95391.03;5016824;28;20214;-76
2023/03/18 09:24:54;;;;;;;9.80;8.85;;;;;;;16.32;30.91;95392.28;5016742;28;20211;-74
2023/03/18 09:27:21;;;;;;;10.07;9.07;;;;;;;15.39;31.24;95397.69;5018478;28;20736;-75
2023/03/18 09:29:48;;;;;;;10.77;9.70;;;;;;;14.23;33.89;95405.44;5020852;28;20261;-74
2023/03/18 09:32:15;;;;;;;10.15;7.50;;;;;;;14.28;34.03;95396.69;5019459;28;20626;-75
2023/03/18 09:34:43;;;;;;;6.78;6.15;;;;;;;14.15;33.49;95399.81;5020983;28;20203;-74
2023/03/18 09:37:10;;;;;;;7.55;6.10;;;;;;;13.45;34.63;95400.97;5020072;28;20230;-74
2023/03/18 09:39:38;;;;;;;7.88;7.15;;;;;;;13.42;34.80;95401.06;5020941;28;20294;-75
2023/03/18 09:42:22;;;;;;;6.85;6.25;;;;;;;12.57;36.92;95401.72;5019881;28;20206;-72
2023/03/18 09:44:54;;;;;;;8.27;7.47;;;;;;;12.04;39.22;95403.59;5019798;28;20659;-73
2023/03/18 09:47:54;;;;;;;7.68;6.35;;;;;;;12.08;38.98;95408.53;5019751;28;20717;-73
2023/03/18 09:50:30;;;;;;;5.93;5.43;;;;;;;12.16;39.48;95404.00;5020200;28;20294;-74
2023/03/18 09:53:09;;;;;;;6.88;5.15;;;;;;;12.65;39.15;95397.16;5020368;28;20269;-74
2023/03/18 09:55:45;;;;;;;11.82;6.45;;;;;;;13.21;38.51;95399.34;5019713;28;20771;-74
2023/03/18 09:58:21;;;;;;;6.63;6.00;;;;;;;13.38;37.49;95391.88;5020712;28;20234;-75
2023/03/18 10:00:51;;;;;;;8.55;4.93;;;;;;;13.34;37.66;95379.31;5020714;28;21280;-73
2023/03/18 10:03:27;;;;;;;4.75;4.35;;;;;;;12.89;37.40;95397.97;5019611;28;20708;-75
2023/03/18 10:05:58;;;;;;;4.47;4.18;;;;;;;12.38;38.31;95393.03;5020418;28;20297;-75
2023/03/18 10:08:41;;;;;;;4.68;4.30;;;;;;;12.52;38.59;95398.50;5019441;28;20265;-75
2023/03/18 10:11:18;;;;;;;5.10;4.75;;;;;;;12.64;38.51;95392.94;5019586;28;20786;-76
2023/03/18 10:13:53;;;;;;;5.15;4.10;;;;;;;12.88;38.00;95393.75;5019565;28;20760;-73
2023/03/18 10:16:25;;;;;;;3.38;3.17;;;;;;;12.74;36.73;95396.84;5020001;28;20761;-73
2023/03/18 10:18:53;;;;;;;4.00;3.67;;;;;;;12.68;36.16;95389.41;5020787;28;20212;-74
2023/03/18 10:21:28;;;;;;;6.93;4.40;;;;;;;12.44;37.62;95390.28;5019886;28;20316;-74
2023/03/18 10:24:02;;;;;;;4.57;4.28;;;;;;;12.40;36.68;95394.66;5019669;28;20308;-76
2023/03/18 10:26:34;;;;;;;4.43;4.03;;;;;;;12.17;37.19;95387.81;5020035;28;20255;-76
2023/03/18 10:29:19;;;;;;;3.65;3.35;;;;;;;11.71;36.19;95390.22;5018975;28;20719;-75
2023/03/18 10:31:57;;;;;;;5.82;5.32;;;;;;;11.61;37.21;95387.16;5019855;28;20253;-75
2023/03/18 10:34:30;;;;;;;4.43;4.13;;;;;;;11.85;36.72;95385.56;5018601;28;20211;-74
2023/03/18 10:37:06;;;;;;;3.70;3.42;;;;;;;11.68;37.68;95382.69;5019103;28;20809;-75
2023/03/18 10:39:36;;;;;;;4.50;3.92;;;;;;;11.50;38.03;95377.31;5018689;28;20286;-74
2023/03/18 10:42:19;;;;;;;4.55;4.15;;;;;;;11.93;36.56;95370.81;5019424;28;20242;-75
2023/03/18 10:44:47;;;;;;;3.72;3.40;;;;;;;12.23;36.08;95376.59;5019038;28;20246;-74
2023/03/18 10:47:19;;;;;;;6.85;3.90;;;;;;;11.84;36.88;95381.34;5019175;28;20231;-74
2023/03/18 10:49:57;;;;;;;5.65;5.15;;;;;;;12.10;37.52;95388.94;5019866;28;20220;-74
2023/03/18 10:52:34;;;;;;;2.97;2.78;;;;;;;12.27;36.17;95378.97;5018250;28;20203;-75
2023/03/18 10:55:01;;;;;;;3.83;3.63;;;;;;;12.40;36.25;95378.53;5019173;28;20285;-76
2023/03/18 10:57:29;;;;;;;4.45;4.07;;;;;;;12.83;36.35;95373.56;5017547;28;20227;-76
2023/03/18 10:59:56;;;;;;;4.70;4.30;;;;;;;12.92;37.59;95378.28;5019231;28;20666;-76
2023/03/18 11:02:30;;;;;;;4.97;4.20;;;;;;;12.79;38.55;95381.38;5018460;28;20677;-75
2023/03/18 11:05:03;;;;;;;4.82;4.47;;;;;;;12.42;38.67;95381.88;5018429;28;20218;-76
2023/03/18 11:07:31;;;;;;;3.83;3.50;;;;;;;12.13;38.94;95383.72;5018616;28;20199;-74
2023/03/18 11:10:14;;;;;;;3.92;3.63;;;;;;;11.79;39.17;95388.28;5019784;28;20231;-75
2023/03/18 11:12:42;;;;;;;4.85;4.00;;;;;;;11.28;39.39;95378.88;5018804;28;20203;-76
2023/03/18 11:15:11;;;;;;;3.75;3.33;;;;;;;10.78;39.55;95378.69;5018267;28;20291;-76
2023/03/18 11:17:39;;;;;;;4.22;2.97;;;;;;;10.67;40.57;95384.94;5019106;28;20665;-76
2023/03/18 11:20:19;;;;;;;4.15;3.35;;;;;;;10.42;39.96;95385.63;5018749;28;20208;-73
2023/03/18 11:22:50;;;;;;;4.05;3.00;;;;;;;10.05;39.68;95385.78;5019346;28;20266;-74
2023/03/18 11:25:19;;;;;;;3.28;3.05;;;;;;;9.86;40.73;95374.44;5018653;28;20223;-74
2023/03/18 11:27:50;;;;;;;3.30;3.00;;;;;;;9.89;40.57;95384.53;5018186;28;20338;-74
2023/03/18 11:30:20;;;;;;;2.83;2.55;;;;;;;9.73;39.45;95378.16;5018170;28;20748;-75